createdAt,value
2019-03-23T00:00:52.226Z,7.85
2019-03-23T00:03:18.635Z,7.91
2019-03-23T00:05:44.896Z,7.83
2019-03-23T00:08:11.055Z,7.88
2019-03-23T00:10:37.226Z,7.89
2019-03-23T00:13:03.454Z,7.86
2019-03-23T00:15:30.048Z,7.87
2019-03-23T00:17:56.392Z,7.86
2019-03-23T00:20:22.606Z,7.83
2019-03-23T00:22:48.842Z,7.82
2019-03-23T00:25:15.482Z,7.73
2019-03-23T00:27:42.025Z,7.75
2019-03-23T00:30:10.342Z,7.74
2019-03-23T00:32:36.617Z,7.84
2019-03-23T00:35:05.279Z,7.87
2019-03-23T00:37:31.442Z,7.98
2019-03-23T00:39:57.690Z,7.93
2019-03-23T00:42:23.854Z,7.93
2019-03-23T00:44:49.943Z,7.98
2019-03-23T00:47:15.974Z,7.92
2019-03-23T00:49:42.100Z,7.90
2019-03-23T00:52:08.247Z,7.83
2019-03-23T00:54:34.370Z,7.84
2019-03-23T00:57:00.597Z,7.86
2019-03-23T00:59:26.806Z,7.76
2019-03-23T01:01:56.926Z,7.76
2019-03-23T01:04:23.032Z,7.72
2019-03-23T01:06:52.351Z,7.75
2019-03-23T01:09:17.164Z,7.73
2019-03-23T01:11:43.351Z,7.65
2019-03-23T01:14:09.469Z,7.58
2019-03-23T01:16:35.681Z,7.52
2019-03-23T01:19:01.686Z,7.52
2019-03-23T01:21:27.780Z,7.49
2019-03-23T01:23:53.976Z,7.49
2019-03-23T01:26:20.210Z,7.50
2019-03-23T01:28:46.365Z,7.50
2019-03-23T01:31:12.557Z,7.46
2019-03-23T01:33:38.799Z,7.45
2019-03-23T01:36:05.198Z,7.40
2019-03-23T01:38:31.350Z,7.50
2019-03-23T01:40:57.516Z,7.46
2019-03-23T01:43:23.710Z,7.48
2019-03-23T01:45:49.921Z,7.38
2019-03-23T01:48:16.105Z,7.50
2019-03-23T01:50:42.412Z,7.63
2019-03-23T01:53:08.885Z,7.60
2019-03-23T01:55:35.076Z,7.68
2019-03-23T01:58:01.359Z,7.63
2019-03-23T02:00:27.583Z,7.68
2019-03-23T02:02:53.674Z,7.70
2019-03-23T02:05:19.970Z,7.63
2019-03-23T02:07:46.195Z,7.58
2019-03-23T02:10:12.635Z,7.57
2019-03-23T02:12:38.931Z,7.69
2019-03-23T02:15:06.967Z,7.73
2019-03-23T02:17:33.086Z,7.63
2019-03-23T02:19:59.571Z,7.61
2019-03-23T02:22:25.787Z,7.60
2019-03-23T02:24:51.855Z,7.58
2019-03-23T02:27:17.910Z,7.56
2019-03-23T02:29:43.996Z,7.59
2019-03-23T02:32:10.132Z,7.50
2019-03-23T02:34:36.183Z,7.57
2019-03-23T02:37:02.332Z,7.55
2019-03-23T02:39:28.471Z,7.56
2019-03-23T02:41:54.527Z,7.40
2019-03-23T02:44:20.657Z,7.31
2019-03-23T02:46:46.715Z,7.34
2019-03-23T02:49:12.843Z,7.33
2019-03-23T02:51:39.833Z,7.39
2019-03-23T02:54:06.203Z,7.46
2019-03-23T02:56:32.315Z,7.44
2019-03-23T02:58:58.431Z,7.50
2019-03-23T03:01:24.599Z,7.48
2019-03-23T03:03:50.615Z,7.39
2019-03-23T03:06:16.654Z,7.34
2019-03-23T03:08:42.672Z,7.31
2019-03-23T03:11:08.737Z,7.31
2019-03-23T03:13:34.790Z,7.42
2019-03-23T03:16:00.935Z,7.49
2019-03-23T03:18:27.036Z,7.48
2019-03-23T03:20:53.094Z,7.53
2019-03-23T03:23:19.225Z,7.41
2019-03-23T03:25:45.394Z,7.34
2019-03-23T03:28:11.478Z,7.40
2019-03-23T03:30:37.677Z,7.29
2019-03-23T03:33:03.907Z,7.39
2019-03-23T03:35:30.027Z,7.38
2019-03-23T03:37:57.343Z,7.35
2019-03-23T03:40:23.769Z,7.53
2019-03-23T03:42:49.935Z,7.43
2019-03-23T03:45:24.171Z,7.42
2019-03-23T03:47:50.223Z,7.43
2019-03-23T03:50:16.336Z,7.35
2019-03-23T03:52:42.371Z,7.37
2019-03-23T03:55:08.493Z,7.48
2019-03-23T03:57:34.599Z,7.40
2019-03-23T04:00:00.629Z,7.38
2019-03-23T04:02:27.069Z,7.33
2019-03-23T04:04:53.237Z,7.32
2019-03-23T04:07:19.280Z,7.38
2019-03-23T04:09:45.538Z,7.42
2019-03-23T04:12:11.589Z,7.39
2019-03-23T04:14:37.645Z,7.50
2019-03-23T04:17:03.664Z,7.50
2019-03-23T04:19:29.912Z,7.45
2019-03-23T04:21:55.963Z,7.49
2019-03-23T04:24:22.117Z,7.32
2019-03-23T04:26:48.200Z,7.34
2019-03-23T04:29:14.336Z,7.42
2019-03-23T04:31:40.467Z,7.41
2019-03-23T04:34:06.493Z,7.39
2019-03-23T04:36:32.550Z,7.34
2019-03-23T04:38:58.717Z,7.34
2019-03-23T04:41:24.756Z,7.47
2019-03-23T04:43:50.823Z,7.45
2019-03-23T04:46:16.862Z,7.57
2019-03-23T04:48:42.999Z,7.61
2019-03-23T04:51:09.063Z,7.60
2019-03-23T04:53:37.888Z,7.49
2019-03-23T04:56:03.986Z,7.41
2019-03-23T04:58:30.323Z,7.54
2019-03-23T05:00:56.555Z,7.53
2019-03-23T05:03:24.893Z,7.39
2019-03-23T05:05:50.943Z,7.37
2019-03-23T05:08:17.103Z,7.46
2019-03-23T05:10:43.168Z,7.45
2019-03-23T05:13:09.319Z,7.63
2019-03-23T05:15:35.351Z,7.70
2019-03-23T05:18:01.394Z,7.73
2019-03-23T05:20:30.980Z,7.67
2019-03-23T05:23:04.675Z,7.76
2019-03-23T05:25:30.809Z,7.81
2019-03-23T05:27:56.929Z,7.87
2019-03-23T05:30:22.976Z,7.87
2019-03-23T05:32:49.086Z,7.84
2019-03-23T05:35:15.131Z,7.93
2019-03-23T05:37:41.863Z,7.86
2019-03-23T05:40:08.714Z,7.96
2019-03-23T05:42:34.739Z,7.93
2019-03-23T05:45:00.759Z,7.97
2019-03-23T05:47:26.818Z,7.97
2019-03-23T05:49:53.296Z,8.11
2019-03-23T05:52:19.439Z,8.15
2019-03-23T05:54:45.768Z,8.22
2019-03-23T05:57:12.025Z,8.39
2019-03-23T05:59:38.073Z,8.48
2019-03-23T06:02:04.139Z,8.45
2019-03-23T06:04:30.269Z,8.52
2019-03-23T06:06:56.518Z,8.56
2019-03-23T06:09:22.570Z,8.62
2019-03-23T06:11:48.579Z,8.58
2019-03-23T06:14:14.591Z,8.61
2019-03-23T06:16:40.596Z,8.51
2019-03-23T06:19:09.321Z,8.53
2019-03-23T06:21:35.650Z,8.36
2019-03-23T06:24:01.770Z,8.31
2019-03-23T06:26:27.770Z,8.28
2019-03-23T06:28:53.839Z,8.07
2019-03-23T06:31:20.053Z,8.06
2019-03-23T06:33:46.219Z,7.97
2019-03-23T06:36:12.420Z,7.76
2019-03-23T06:38:38.557Z,7.69
2019-03-23T06:41:04.726Z,7.50
2019-03-23T06:43:32.226Z,7.44
2019-03-23T06:45:58.395Z,7.35
2019-03-23T06:48:24.730Z,7.25
2019-03-23T06:50:50.751Z,7.15
2019-03-23T06:53:16.787Z,7.23
2019-03-23T06:55:43.136Z,7.22
2019-03-23T06:58:09.444Z,7.18
2019-03-23T07:00:35.615Z,7.23
2019-03-23T07:03:01.804Z,7.30
2019-03-23T07:05:29.322Z,7.22
2019-03-23T07:07:55.735Z,7.24
2019-03-23T07:10:29.512Z,7.24
2019-03-23T07:12:55.787Z,7.18
2019-03-23T07:15:21.926Z,7.22
2019-03-23T07:17:51.951Z,7.22
2019-03-23T07:20:18.000Z,7.24
2019-03-23T07:22:44.032Z,7.22
2019-03-23T07:25:10.814Z,7.08
2019-03-23T07:27:37.160Z,7.16
2019-03-23T07:30:14.663Z,7.14
2019-03-23T07:32:40.898Z,7.12
2019-03-23T07:35:07.433Z,7.08
2019-03-23T07:37:33.555Z,7.03
2019-03-23T07:40:02.678Z,7.00
2019-03-23T07:42:28.698Z,6.96
2019-03-23T07:44:54.723Z,6.99
2019-03-23T07:47:20.746Z,7.07
2019-03-23T07:49:46.744Z,7.24
2019-03-23T07:52:12.801Z,7.22
2019-03-23T07:54:38.922Z,7.08
2019-03-23T07:57:05.047Z,7.09
2019-03-23T07:59:31.336Z,7.14
2019-03-23T08:01:58.570Z,7.27
2019-03-23T08:04:24.642Z,7.25
2019-03-23T08:06:50.676Z,7.39
2019-03-23T08:09:20.595Z,7.42
2019-03-23T08:11:44.753Z,7.46
2019-03-23T08:14:10.794Z,7.29
2019-03-23T08:16:37.150Z,7.26
2019-03-23T08:19:03.367Z,7.28
2019-03-23T08:21:29.455Z,7.14
2019-03-23T08:23:55.492Z,7.26
2019-03-23T08:26:21.653Z,7.32
2019-03-23T08:28:47.734Z,7.44
2019-03-23T08:31:13.781Z,7.18
2019-03-23T08:33:39.923Z,7.18
2019-03-23T08:36:06.087Z,7.27
2019-03-23T08:38:32.378Z,7.32
2019-03-23T08:40:58.399Z,7.31
2019-03-23T08:43:24.827Z,7.40
2019-03-23T08:45:50.953Z,7.39
2019-03-23T08:48:17.077Z,7.46
2019-03-23T08:50:43.219Z,7.49
2019-03-23T08:53:09.258Z,7.58
2019-03-23T08:55:35.286Z,7.47
2019-03-23T08:58:01.354Z,7.56
2019-03-23T09:00:27.373Z,7.52
2019-03-23T09:02:53.499Z,7.67
2019-03-23T09:05:19.554Z,7.85
2019-03-23T09:07:45.682Z,7.89
2019-03-23T09:10:11.691Z,7.99
2019-03-23T09:12:37.714Z,7.97
2019-03-23T09:15:06.098Z,8.09
2019-03-23T09:17:32.141Z,8.06
2019-03-23T09:19:58.226Z,7.94
2019-03-23T09:22:24.250Z,8.06
2019-03-23T09:24:50.317Z,8.05
2019-03-23T09:27:16.462Z,8.03
2019-03-23T09:29:43.689Z,8.23
2019-03-23T09:32:09.778Z,8.34
2019-03-23T09:34:35.831Z,8.28
2019-03-23T09:37:01.886Z,8.43
2019-03-23T09:39:27.909Z,8.43
2019-03-23T09:41:54.130Z,8.63
2019-03-23T09:44:20.225Z,8.70
2019-03-23T09:46:46.261Z,8.83
2019-03-23T09:49:12.671Z,8.86
2019-03-23T09:51:39.703Z,9.03
2019-03-23T09:54:05.837Z,9.01
2019-03-23T09:56:31.925Z,9.10
2019-03-23T09:58:57.978Z,9.24
2019-03-23T10:01:24.453Z,9.37
2019-03-23T10:03:50.579Z,9.46
2019-03-23T10:06:16.603Z,9.49
2019-03-23T10:08:46.470Z,9.71
2019-03-23T10:11:11.738Z,9.62
2019-03-23T10:13:37.914Z,9.77
2019-03-23T10:16:03.913Z,9.88
2019-03-23T10:18:29.904Z,9.94
2019-03-23T10:20:55.986Z,10.07
2019-03-23T10:23:22.107Z,10.30
2019-03-23T10:25:48.145Z,10.50
2019-03-23T10:28:15.120Z,10.52
2019-03-23T10:30:41.243Z,10.52
2019-03-23T10:33:07.258Z,10.53
2019-03-23T10:35:33.591Z,10.59
2019-03-23T10:37:59.652Z,10.53
2019-03-23T10:40:32.353Z,10.54
2019-03-23T10:42:53.639Z,10.65
2019-03-23T10:45:19.751Z,10.79
2019-03-23T10:47:46.006Z,10.86
2019-03-23T10:50:12.305Z,10.90
2019-03-23T10:52:38.351Z,11.01
2019-03-23T10:55:05.234Z,11.15
2019-03-23T10:57:31.326Z,11.15
2019-03-23T10:59:57.357Z,11.26
2019-03-23T11:02:23.430Z,11.10
2019-03-23T11:04:49.463Z,10.89
2019-03-23T11:07:15.561Z,10.72
2019-03-23T11:09:41.688Z,10.82
2019-03-23T11:12:07.759Z,10.88
2019-03-23T11:14:33.978Z,10.93
2019-03-23T11:17:00.089Z,11.01
2019-03-23T11:19:26.275Z,10.96
2019-03-23T11:21:52.619Z,10.65
2019-03-23T11:24:18.772Z,10.66
2019-03-23T11:26:44.925Z,10.67
2019-03-23T11:29:11.279Z,10.46
2019-03-23T11:31:37.640Z,10.35
2019-03-23T11:34:04.001Z,10.36
2019-03-23T11:36:30.730Z,10.24
2019-03-23T11:38:58.333Z,10.24
2019-03-23T11:41:24.593Z,10.60
2019-03-23T11:43:50.967Z,10.68
2019-03-23T11:46:17.319Z,10.78
2019-03-23T11:48:43.598Z,10.75
2019-03-23T11:51:09.926Z,10.64
2019-03-23T11:53:36.773Z,10.65
2019-03-23T11:56:03.623Z,10.66
2019-03-23T11:58:29.822Z,10.64
2019-03-23T12:00:55.947Z,10.71
2019-03-23T12:03:22.669Z,10.79
2019-03-23T12:05:49.098Z,11.11
2019-03-23T12:08:18.017Z,11.12
2019-03-23T12:10:44.208Z,11.07
2019-03-23T12:13:10.414Z,11.15
2019-03-23T12:15:36.640Z,10.86
2019-03-23T12:18:03.135Z,10.88
2019-03-23T12:20:29.604Z,11.10
2019-03-23T12:22:55.864Z,10.97
2019-03-23T12:25:22.021Z,10.96
2019-03-23T12:27:48.250Z,11.07
2019-03-23T12:30:15.949Z,10.98
2019-03-23T12:32:42.219Z,11.16
2019-03-23T12:35:08.820Z,11.22
2019-03-23T12:37:35.158Z,11.37
2019-03-23T12:40:01.378Z,11.05
2019-03-23T12:42:27.526Z,11.19
2019-03-23T12:44:54.014Z,11.27
2019-03-23T12:47:20.187Z,11.25
2019-03-23T12:49:46.528Z,11.19
2019-03-23T12:52:12.695Z,11.15
2019-03-23T12:54:39.019Z,11.13
2019-03-23T12:57:05.380Z,11.33
2019-03-23T12:59:32.929Z,11.37
2019-03-23T13:01:59.280Z,11.64
2019-03-23T13:04:25.401Z,11.72
2019-03-23T13:06:51.668Z,11.71
2019-03-23T13:09:17.759Z,12.08
2019-03-23T13:11:43.884Z,12.50
2019-03-23T13:14:10.023Z,12.69
2019-03-23T13:16:36.186Z,12.78
2019-03-23T13:19:02.370Z,12.71
2019-03-23T13:21:28.498Z,13.07
2019-03-23T13:23:54.597Z,13.39
2019-03-23T13:26:20.714Z,13.82
2019-03-23T13:28:46.771Z,13.86
2019-03-23T13:31:12.861Z,13.88
2019-03-23T13:33:40.013Z,13.85
2019-03-23T13:36:06.115Z,13.74
2019-03-23T13:38:32.439Z,14.05
2019-03-23T13:40:58.907Z,14.08
2019-03-23T13:43:24.994Z,13.79
2019-03-23T13:45:51.089Z,13.62
2019-03-23T13:48:17.218Z,13.39
2019-03-23T13:50:43.350Z,13.45
2019-03-23T13:53:09.434Z,13.52
2019-03-23T13:55:35.629Z,13.12
2019-03-23T13:58:13.338Z,13.23
2019-03-23T14:00:40.032Z,13.37
2019-03-23T14:03:06.938Z,13.39
2019-03-23T14:05:33.078Z,13.31
2019-03-23T14:07:59.162Z,12.99
2019-03-23T14:10:25.749Z,12.75
2019-03-23T14:12:51.887Z,13.01
2019-03-23T14:15:17.886Z,12.93
2019-03-23T14:17:44.349Z,12.79
2019-03-23T14:20:11.905Z,12.74
2019-03-23T14:22:38.150Z,12.72
2019-03-23T14:25:05.530Z,12.52
2019-03-23T14:27:31.870Z,12.28
2019-03-23T14:29:58.214Z,12.43
2019-03-23T14:32:24.709Z,12.34
2019-03-23T14:34:50.791Z,12.13
2019-03-23T14:37:16.797Z,12.41
2019-03-23T14:39:42.884Z,12.44
2019-03-23T14:42:09.481Z,12.72
2019-03-23T14:44:39.608Z,12.60
2019-03-23T14:47:05.774Z,12.57
2019-03-23T14:49:31.949Z,12.49
2019-03-23T14:51:58.284Z,12.32
2019-03-23T14:54:24.554Z,12.34
2019-03-23T14:56:50.630Z,12.45
2019-03-23T14:59:16.766Z,12.40
2019-03-23T15:01:42.861Z,12.18
2019-03-23T15:04:08.923Z,12.08
2019-03-23T15:06:34.978Z,11.96
2019-03-23T15:09:01.164Z,12.03
2019-03-23T15:11:27.391Z,11.92
2019-03-23T15:13:53.674Z,12.01
2019-03-23T15:16:19.722Z,11.92
2019-03-23T15:18:45.895Z,11.66
2019-03-23T15:21:12.208Z,11.69
2019-03-23T15:23:38.696Z,11.62
2019-03-23T15:26:05.275Z,11.54
2019-03-23T15:28:32.774Z,11.52
2019-03-23T15:30:58.847Z,11.51
2019-03-23T15:33:25.000Z,11.47
2019-03-23T15:35:51.096Z,11.38
2019-03-23T15:38:17.211Z,11.27
2019-03-23T15:40:43.239Z,11.24
2019-03-23T15:43:09.272Z,11.12
2019-03-23T15:45:35.392Z,11.10
2019-03-23T15:48:01.546Z,11.16
2019-03-23T15:50:27.637Z,11.11
2019-03-23T15:52:53.810Z,11.05
2019-03-23T15:55:19.956Z,10.94
2019-03-23T15:57:46.086Z,10.93
2019-03-23T16:00:12.938Z,10.93
2019-03-23T16:02:39.463Z,10.93
2019-03-23T16:05:06.853Z,10.90
2019-03-23T16:07:32.974Z,10.83
2019-03-23T16:09:59.042Z,10.66
2019-03-23T16:12:34.238Z,10.62
2019-03-23T16:14:53.206Z,10.66
2019-03-23T16:17:19.532Z,10.77
2019-03-23T16:19:45.726Z,10.69
2019-03-23T16:22:11.891Z,10.56
2019-03-23T16:24:38.017Z,10.54
2019-03-23T16:27:04.306Z,10.44
2019-03-23T16:29:30.449Z,10.51
2019-03-23T16:31:56.526Z,10.42
2019-03-23T16:34:22.839Z,10.34
2019-03-23T16:36:49.027Z,10.34
2019-03-23T16:39:15.430Z,10.34
2019-03-23T16:41:41.514Z,10.35
2019-03-23T16:44:07.555Z,10.40
2019-03-23T16:46:33.740Z,10.36
2019-03-23T16:49:00.465Z,10.37
2019-03-23T16:51:26.580Z,10.38
2019-03-23T16:53:52.759Z,10.41
2019-03-23T16:56:18.986Z,10.30
2019-03-23T16:58:45.211Z,10.28
2019-03-23T17:01:11.723Z,10.23
2019-03-23T17:03:38.358Z,10.07
2019-03-23T17:06:04.604Z,10.09
2019-03-23T17:08:30.743Z,10.00
2019-03-23T17:10:57.304Z,9.97
2019-03-23T17:13:23.613Z,9.92
2019-03-23T17:15:49.837Z,9.83
2019-03-23T17:18:16.013Z,9.85
2019-03-23T17:20:42.825Z,9.79
2019-03-23T17:23:08.983Z,9.85
2019-03-23T17:25:35.181Z,9.88
2019-03-23T17:28:01.378Z,9.83
2019-03-23T17:30:27.559Z,9.80
2019-03-23T17:32:53.753Z,9.72
2019-03-23T17:35:19.955Z,9.59
2019-03-23T17:37:45.989Z,9.52
2019-03-23T17:40:12.419Z,9.56
2019-03-23T17:42:38.584Z,9.52
2019-03-23T17:45:05.818Z,9.51
2019-03-23T17:47:31.906Z,9.42
2019-03-23T17:49:58.275Z,9.39
2019-03-23T17:52:24.294Z,9.21
2019-03-23T17:54:50.404Z,9.22
2019-03-23T17:57:16.468Z,9.14
2019-03-23T17:59:42.560Z,9.02
2019-03-23T18:02:08.922Z,9.08
2019-03-23T18:04:35.032Z,9.08
2019-03-23T18:07:01.044Z,8.95
2019-03-23T18:09:27.182Z,8.95
2019-03-23T18:11:53.315Z,8.98
2019-03-23T18:14:20.492Z,8.95
2019-03-23T18:16:46.762Z,8.89
2019-03-23T18:19:13.192Z,8.93
2019-03-23T18:21:39.221Z,8.88
2019-03-23T18:24:05.261Z,8.82
2019-03-23T18:26:32.815Z,8.81
2019-03-23T18:28:58.842Z,8.86
2019-03-23T18:31:24.882Z,8.79
2019-03-23T18:33:51.082Z,8.75
2019-03-23T18:36:17.222Z,8.76
2019-03-23T18:38:43.462Z,8.75
2019-03-23T18:41:09.491Z,8.66
2019-03-23T18:43:35.664Z,8.71
2019-03-23T18:46:01.744Z,8.66
2019-03-23T18:48:27.893Z,8.74
2019-03-23T18:50:54.196Z,8.72
2019-03-23T18:53:20.299Z,8.70
2019-03-23T18:55:46.638Z,8.67
2019-03-23T18:58:12.685Z,8.63
2019-03-23T19:00:41.078Z,8.65
2019-03-23T19:03:07.479Z,8.72
2019-03-23T19:05:34.278Z,8.67
2019-03-23T19:08:00.461Z,8.61
2019-03-23T19:10:46.473Z,8.55
2019-03-23T19:13:12.868Z,8.50
2019-03-23T19:15:39.309Z,8.44
2019-03-23T19:18:06.228Z,8.36
2019-03-23T19:20:32.834Z,8.44
2019-03-23T19:22:59.007Z,8.45
2019-03-23T19:25:25.445Z,8.35
2019-03-23T19:27:51.593Z,8.22
2019-03-23T19:30:18.063Z,8.21
2019-03-23T19:32:44.251Z,8.09
2019-03-23T19:35:10.519Z,8.02
2019-03-23T19:37:38.769Z,8.03
2019-03-23T19:40:05.164Z,8.02
2019-03-23T19:42:31.510Z,7.90
2019-03-23T19:44:57.676Z,7.87
2019-03-23T19:47:23.828Z,7.82
2019-03-23T19:49:49.900Z,7.82
2019-03-23T19:52:16.173Z,7.84
2019-03-23T19:54:42.428Z,7.76
2019-03-23T19:57:08.658Z,7.77
2019-03-23T19:59:36.685Z,7.83
2019-03-23T20:02:02.828Z,7.79
2019-03-23T20:04:28.873Z,7.77
2019-03-23T20:06:55.098Z,7.68
2019-03-23T20:09:22.168Z,7.78
2019-03-23T20:11:48.296Z,7.65
2019-03-23T20:14:14.340Z,7.64
2019-03-23T20:16:40.706Z,7.65
2019-03-23T20:19:07.053Z,7.64
2019-03-23T20:21:38.407Z,7.67
2019-03-23T20:24:04.552Z,7.59
2019-03-23T20:26:30.597Z,7.60
2019-03-23T20:28:56.814Z,7.67
2019-03-23T20:31:22.928Z,7.63
2019-03-23T20:33:49.107Z,7.63
2019-03-23T20:36:15.202Z,7.57
2019-03-23T20:38:41.329Z,7.58
2019-03-23T20:41:07.384Z,7.58
2019-03-23T20:43:35.610Z,7.52
2019-03-23T20:46:01.668Z,7.50
2019-03-23T20:48:27.696Z,7.42
2019-03-23T20:50:53.758Z,7.43
2019-03-23T20:53:20.096Z,7.39
2019-03-23T20:55:46.247Z,7.38
2019-03-23T20:58:12.301Z,7.43
2019-03-23T21:00:38.396Z,7.43
2019-03-23T21:03:05.079Z,7.44
2019-03-23T21:05:34.038Z,7.40
2019-03-23T21:07:59.157Z,7.33
2019-03-23T21:10:25.472Z,7.32
2019-03-23T21:12:51.521Z,7.28
2019-03-23T21:15:17.645Z,7.26
2019-03-23T21:17:51.183Z,7.22
2019-03-23T21:20:11.606Z,7.22
2019-03-23T21:22:37.773Z,7.53
2019-03-23T21:25:05.459Z,7.35
2019-03-23T21:27:31.896Z,7.38
2019-03-23T21:29:57.939Z,7.30
2019-03-23T21:32:23.969Z,7.26
2019-03-23T21:34:50.200Z,7.24
2019-03-23T21:37:16.304Z,7.24
2019-03-23T21:39:42.511Z,7.23
2019-03-23T21:42:08.622Z,7.15
2019-03-23T21:44:34.765Z,7.27
2019-03-23T21:47:02.705Z,7.25
2019-03-23T21:49:28.937Z,7.26
2019-03-23T21:51:55.072Z,7.12
2019-03-23T21:54:21.090Z,7.02
2019-03-23T21:56:47.275Z,7.07
2019-03-23T21:59:13.416Z,7.11
2019-03-23T22:01:39.554Z,7.07
2019-03-23T22:04:05.710Z,7.01
2019-03-23T22:06:32.269Z,7.12
2019-03-23T22:08:58.878Z,7.08
2019-03-23T22:11:25.102Z,7.00
2019-03-23T22:13:51.274Z,7.04
2019-03-23T22:16:17.326Z,6.99
2019-03-23T22:18:43.486Z,7.01
2019-03-23T22:21:09.845Z,6.93
2019-03-23T22:23:37.330Z,6.88
2019-03-23T22:26:03.622Z,6.95
2019-03-23T22:28:29.771Z,6.95
2019-03-23T22:30:55.954Z,6.93
2019-03-23T22:33:22.188Z,6.99
2019-03-23T22:35:49.999Z,6.89
2019-03-23T22:38:16.323Z,6.94
2019-03-23T22:40:42.344Z,6.93
2019-03-23T22:43:08.766Z,6.90
2019-03-23T22:45:41.850Z,6.98
2019-03-23T22:48:10.191Z,6.93
2019-03-23T22:50:36.358Z,6.95
2019-03-23T22:53:02.507Z,6.91
2019-03-23T22:55:28.898Z,6.96
2019-03-23T22:57:55.025Z,6.95
2019-03-23T23:00:26.395Z,6.93
2019-03-23T23:02:52.655Z,6.94
2019-03-23T23:05:32.403Z,6.91
2019-03-23T23:07:56.555Z,6.96
2019-03-23T23:10:22.753Z,6.94
2019-03-23T23:12:50.988Z,6.83
2019-03-23T23:15:17.179Z,6.88
2019-03-23T23:17:44.020Z,6.90
2019-03-23T23:20:10.497Z,6.85
2019-03-23T23:22:39.663Z,6.84
2019-03-23T23:25:08.527Z,6.79
2019-03-23T23:27:36.595Z,6.82
2019-03-23T23:30:08.124Z,6.85
2019-03-23T23:32:35.011Z,6.84
2019-03-23T23:35:01.136Z,6.80
2019-03-23T23:37:27.172Z,6.87
2019-03-23T23:39:53.338Z,6.79
2019-03-23T23:42:19.762Z,6.78
2019-03-23T23:44:45.831Z,6.69
2019-03-23T23:47:11.958Z,6.66
2019-03-23T23:49:38.446Z,6.65
2019-03-23T23:52:04.619Z,6.74
2019-03-23T23:54:30.657Z,6.75
2019-03-23T23:56:56.770Z,6.71
2019-03-23T23:59:22.879Z,6.70
